Terminal Aerodrome Forecast
Issued by NWS

Home | Current Version | Previous Version | Text Only | Print | Product List | Glossary On
Versions: 1 2 3 4 5 6 7 8 9 10 11 12 13 14 15 16 17
000
FTPQ31 PGUM 221126
TAFGUM
TAF

TAF
PGSN 221126Z 2212/2312 35008KT P6SM VCSH FEW018 SCT050 BKN140
     FM230000 01011G18KT P6SM VCSH FEW016 SCT040 BKN140=

USA.gov is the U.S. government's official web portal to all federal, state and local government web resources and services.